sensor_id;sensor_type;location;lat;lon;timestamp;pressure;altitude;pressure_sealevel;temperature;humidity
36222;BME280;22266;52.340;4.962;2023-09-19T00:00:44;100597.69;;;16.72;66.58
36222;BME280;22266;52.340;4.962;2023-09-19T00:03:14;100588.72;;;16.71;66.45
36222;BME280;22266;52.340;4.962;2023-09-19T00:05:41;100591.69;;;16.70;66.19
36222;BME280;22266;52.340;4.962;2023-09-19T00:08:10;100598.78;;;16.71;66.53
36222;BME280;22266;52.340;4.962;2023-09-19T00:10:37;100604.94;;;16.66;66.28
36222;BME280;22266;52.340;4.962;2023-09-19T00:13:04;100611.19;;;16.67;66.23
36222;BME280;22266;52.340;4.962;2023-09-19T00:15:40;100608.72;;;16.65;66.66
36222;BME280;22266;52.340;4.962;2023-09-19T00:18:08;100613.81;;;16.62;66.41
36222;BME280;22266;52.340;4.962;2023-09-19T00:20:36;100619.47;;;16.60;66.15
36222;BME280;22266;52.340;4.962;2023-09-19T00:23:03;100619.72;;;16.59;66.00
36222;BME280;22266;52.340;4.962;2023-09-19T00:25:30;100614.75;;;16.55;65.27
36222;BME280;22266;52.340;4.962;2023-09-19T00:27:59;100620.19;;;16.55;64.88
36222;BME280;22266;52.340;4.962;2023-09-19T00:30:26;100623.72;;;16.56;64.90
36222;BME280;22266;52.340;4.962;2023-09-19T00:32:53;100622.81;;;16.50;64.14
36222;BME280;22266;52.340;4.962;2023-09-19T00:35:21;100627.41;;;16.50;63.84
36222;BME280;22266;52.340;4.962;2023-09-19T00:37:51;100625.28;;;16.52;63.93
36222;BME280;22266;52.340;4.962;2023-09-19T00:40:19;100629.66;;;16.53;63.61
36222;BME280;22266;52.340;4.962;2023-09-19T00:42:47;100623.06;;;16.49;62.86
36222;BME280;22266;52.340;4.962;2023-09-19T00:45:19;100629.06;;;16.51;61.97
36222;BME280;22266;52.340;4.962;2023-09-19T00:47:48;100632.59;;;16.51;62.50
36222;BME280;22266;52.340;4.962;2023-09-19T00:50:18;100638.66;;;16.53;62.33
36222;BME280;22266;52.340;4.962;2023-09-19T00:52:48;100642.19;;;16.54;62.57
36222;BME280;22266;52.340;4.962;2023-09-19T00:55:16;100641.56;;;16.52;61.85
36222;BME280;22266;52.340;4.962;2023-09-19T00:57:46;100636.97;;;16.52;61.74
36222;BME280;22266;52.340;4.962;2023-09-19T01:00:14;100634.75;;;16.49;61.41
36222;BME280;22266;52.340;4.962;2023-09-19T01:02:42;100641.22;;;16.48;62.04
36222;BME280;22266;52.340;4.962;2023-09-19T01:05:12;100645.63;;;16.49;62.09
36222;BME280;22266;52.340;4.962;2023-09-19T01:07:38;100646.19;;;16.51;62.24
36222;BME280;22266;52.340;4.962;2023-09-19T01:10:14;100641.00;;;16.50;61.91
36222;BME280;22266;52.340;4.962;2023-09-19T01:21:37;100641.94;;;16.44;62.58
36222;BME280;22266;52.340;4.962;2023-09-19T01:24:36;100644.09;;;16.42;62.54
36222;BME280;22266;52.340;4.962;2023-09-19T01:29:48;100636.50;;;16.44;62.62
36222;BME280;22266;52.340;4.962;2023-09-19T01:32:19;100640.91;;;16.45;62.99
36222;BME280;22266;52.340;4.962;2023-09-19T01:34:55;100650.09;;;16.44;63.21
36222;BME280;22266;52.340;4.962;2023-09-19T01:37:26;100653.31;;;16.41;62.81
36222;BME280;22266;52.340;4.962;2023-09-19T01:40:00;100649.75;;;16.40;62.84
36222;BME280;22266;52.340;4.962;2023-09-19T01:43:02;100655.41;;;16.39;62.92
36222;BME280;22266;52.340;4.962;2023-09-19T01:45:47;100647.28;;;16.39;62.91
36222;BME280;22266;52.340;4.962;2023-09-19T01:48:40;100650.47;;;16.36;62.96
36222;BME280;22266;52.340;4.962;2023-09-19T01:51:10;100639.84;;;16.34;63.17
36222;BME280;22266;52.340;4.962;2023-09-19T01:53:45;100633.94;;;16.37;63.71
36222;BME280;22266;52.340;4.962;2023-09-19T01:56:21;100631.44;;;16.36;63.46
36222;BME280;22266;52.340;4.962;2023-09-19T01:58:53;100637.94;;;16.35;63.27
36222;BME280;22266;52.340;4.962;2023-09-19T02:01:24;100642.56;;;16.34;63.57
36222;BME280;22266;52.340;4.962;2023-09-19T02:03:51;100643.13;;;16.36;64.03
36222;BME280;22266;52.340;4.962;2023-09-19T02:06:19;100634.75;;;16.38;64.42
36222;BME280;22266;52.340;4.962;2023-09-19T02:08:48;100644.81;;;16.37;65.45
36222;BME280;22266;52.340;4.962;2023-09-19T02:11:15;100650.34;;;16.30;65.61
36222;BME280;22266;52.340;4.962;2023-09-19T02:13:42;100661.94;;;16.26;66.35
36222;BME280;22266;52.340;4.962;2023-09-19T02:16:11;100656.72;;;16.24;66.47
36222;BME280;22266;52.340;4.962;2023-09-19T02:18:39;100663.00;;;16.25;67.10
36222;BME280;22266;52.340;4.962;2023-09-19T02:21:05;100657.31;;;16.26;67.44
36222;BME280;22266;52.340;4.962;2023-09-19T02:23:39;100653.16;;;16.24;67.42
36222;BME280;22266;52.340;4.962;2023-09-19T02:26:06;100658.59;;;16.24;67.83
36222;BME280;22266;52.340;4.962;2023-09-19T02:28:34;100653.41;;;16.22;67.91
36222;BME280;22266;52.340;4.962;2023-09-19T02:31:02;100657.66;;;16.18;67.99
36222;BME280;22266;52.340;4.962;2023-09-19T02:33:28;100658.75;;;16.17;68.26
36222;BME280;22266;52.340;4.962;2023-09-19T02:35:59;100658.13;;;16.15;68.33
36222;BME280;22266;52.340;4.962;2023-09-19T02:38:27;100663.56;;;16.15;68.11
36222;BME280;22266;52.340;4.962;2023-09-19T02:40:53;100667.34;;;16.14;68.07
36222;BME280;22266;52.340;4.962;2023-09-19T02:43:22;100660.13;;;16.08;68.21
36222;BME280;22266;52.340;4.962;2023-09-19T02:45:49;100668.88;;;15.98;68.08
36222;BME280;22266;52.340;4.962;2023-09-19T02:48:16;100661.78;;;15.97;68.33
36222;BME280;22266;52.340;4.962;2023-09-19T02:50:43;100650.81;;;15.92;67.85
36222;BME280;22266;52.340;4.962;2023-09-19T02:53:10;100652.47;;;15.93;68.10
36222;BME280;22266;52.340;4.962;2023-09-19T02:55:40;100648.78;;;15.99;68.11
36222;BME280;22266;52.340;4.962;2023-09-19T02:58:07;100656.22;;;16.04;67.75
36222;BME280;22266;52.340;4.962;2023-09-19T03:00:41;100651.97;;;16.08;67.91
36222;BME280;22266;52.340;4.962;2023-09-19T03:03:14;100643.97;;;16.13;67.94
36222;BME280;22266;52.340;4.962;2023-09-19T03:05:43;100641.84;;;16.15;68.17
36222;BME280;22266;52.340;4.962;2023-09-19T03:08:15;100645.97;;;16.18;68.15
36222;BME280;22266;52.340;4.962;2023-09-19T03:10:48;100644.09;;;16.18;68.45
36222;BME280;22266;52.340;4.962;2023-09-19T03:13:16;100649.53;;;16.18;68.65
36222;BME280;22266;52.340;4.962;2023-09-19T03:15:43;100647.28;;;16.15;68.47
36222;BME280;22266;52.340;4.962;2023-09-19T03:18:16;100650.44;;;16.12;69.16
36222;BME280;22266;52.340;4.962;2023-09-19T03:20:52;100643.63;;;16.10;69.05
36222;BME280;22266;52.340;4.962;2023-09-19T03:23:22;100641.63;;;16.05;68.57
36222;BME280;22266;52.340;4.962;2023-09-19T03:25:48;100648.56;;;16.01;68.64
36222;BME280;22266;52.340;4.962;2023-09-19T03:28:15;100638.53;;;15.90;68.38
36222;BME280;22266;52.340;4.962;2023-09-19T03:30:42;100640.31;;;15.84;68.46
36222;BME280;22266;52.340;4.962;2023-09-19T03:33:09;100645.94;;;15.82;68.71
36222;BME280;22266;52.340;4.962;2023-09-19T03:35:39;100641.13;;;15.85;68.79
36222;BME280;22266;52.340;4.962;2023-09-19T03:38:06;100638.41;;;15.85;68.56
36222;BME280;22266;52.340;4.962;2023-09-19T03:40:33;100652.91;;;15.78;69.13
36222;BME280;22266;52.340;4.962;2023-09-19T03:43:02;100660.22;;;15.78;68.88
36222;BME280;22266;52.340;4.962;2023-09-19T03:45:29;100660.47;;;15.76;68.77
36222;BME280;22266;52.340;4.962;2023-09-19T03:47:56;100664.22;;;15.75;68.85
36222;BME280;22266;52.340;4.962;2023-09-19T03:50:23;100660.69;;;15.75;68.85
36222;BME280;22266;52.340;4.962;2023-09-19T03:52:50;100661.84;;;15.67;68.51
36222;BME280;22266;52.340;4.962;2023-09-19T03:55:22;100662.44;;;15.69;68.39
36222;BME280;22266;52.340;4.962;2023-09-19T03:57:48;100675.41;;;15.67;68.52
36222;BME280;22266;52.340;4.962;2023-09-19T04:00:16;100672.22;;;15.70;68.71
36222;BME280;22266;52.340;4.962;2023-09-19T04:02:48;100674.50;;;15.73;68.25
36222;BME280;22266;52.340;4.962;2023-09-19T04:05:14;100671.53;;;15.75;68.36
36222;BME280;22266;52.340;4.962;2023-09-19T04:07:41;100679.47;;;15.76;68.48
36222;BME280;22266;52.340;4.962;2023-09-19T04:10:08;100673.78;;;15.78;68.70
36222;BME280;22266;52.340;4.962;2023-09-19T04:12:36;100678.97;;;15.79;68.59
36222;BME280;22266;52.340;4.962;2023-09-19T04:15:03;100683.13;;;15.82;68.51
36222;BME280;22266;52.340;4.962;2023-09-19T04:17:30;100687.47;;;15.83;68.48
36222;BME280;22266;52.340;4.962;2023-09-19T04:19:59;100680.78;;;15.86;68.73
36222;BME280;22266;52.340;4.962;2023-09-19T04:22:26;100696.22;;;15.85;68.42
36222;BME280;22266;52.340;4.962;2023-09-19T04:24:53;100692.69;;;15.85;68.11
36222;BME280;22266;52.340;4.962;2023-09-19T04:27:19;100696.94;;;15.80;68.40
36222;BME280;22266;52.340;4.962;2023-09-19T04:29:46;100695.88;;;15.81;68.78
36222;BME280;22266;52.340;4.962;2023-09-19T04:32:12;100694.91;;;15.88;68.72
36222;BME280;22266;52.340;4.962;2023-09-19T04:34:39;100699.06;;;15.90;68.87
36222;BME280;22266;52.340;4.962;2023-09-19T04:37:06;100698.69;;;15.87;68.82
36222;BME280;22266;52.340;4.962;2023-09-19T04:39:32;100701.22;;;15.88;69.22
36222;BME280;22266;52.340;4.962;2023-09-19T04:42:00;100705.56;;;15.89;69.52
36222;BME280;22266;52.340;4.962;2023-09-19T04:44:27;100703.69;;;15.90;70.01
36222;BME280;22266;52.340;4.962;2023-09-19T04:46:54;100705.56;;;15.89;70.37
36222;BME280;22266;52.340;4.962;2023-09-19T04:49:20;100701.66;;;15.85;70.20
36222;BME280;22266;52.340;4.962;2023-09-19T04:51:47;100699.16;;;15.83;70.62
36222;BME280;22266;52.340;4.962;2023-09-19T04:54:14;100710.50;;;15.80;70.76
36222;BME280;22266;52.340;4.962;2023-09-19T04:56:41;100709.31;;;15.76;71.19
36222;BME280;22266;52.340;4.962;2023-09-19T04:59:07;100716.84;;;15.74;71.07
36222;BME280;22266;52.340;4.962;2023-09-19T05:01:34;100720.00;;;15.71;71.56
36222;BME280;22266;52.340;4.962;2023-09-19T05:04:00;100714.81;;;15.70;71.77
36222;BME280;22266;52.340;4.962;2023-09-19T05:06:27;100715.94;;;15.62;71.57
36222;BME280;22266;52.340;4.962;2023-09-19T05:08:54;100703.59;;;15.66;72.31
36222;BME280;22266;52.340;4.962;2023-09-19T05:11:21;100713.41;;;15.67;71.93
36222;BME280;22266;52.340;4.962;2023-09-19T05:13:49;100718.81;;;15.67;72.24
36222;BME280;22266;52.340;4.962;2023-09-19T05:16:22;100715.28;;;15.67;72.22
36222;BME280;22266;52.340;4.962;2023-09-19T05:18:48;100715.53;;;15.65;72.34
36222;BME280;22266;52.340;4.962;2023-09-19T05:21:16;100701.56;;;15.62;72.74
36222;BME280;22266;52.340;4.962;2023-09-19T05:23:43;100702.38;;;15.62;72.62
36222;BME280;22266;52.340;4.962;2023-09-19T05:26:10;100717.19;;;15.66;72.91
36222;BME280;22266;52.340;4.962;2023-09-19T05:28:37;100709.03;;;15.66;72.83
36222;BME280;22266;52.340;4.962;2023-09-19T05:31:04;100707.38;;;15.65;73.20
36222;BME280;22266;52.340;4.962;2023-09-19T05:33:31;100709.66;;;15.68;73.18
36222;BME280;22266;52.340;4.962;2023-09-19T05:35:58;100707.75;;;15.69;73.06
36222;BME280;22266;52.340;4.962;2023-09-19T05:38:25;100720.50;;;15.68;73.17
36222;BME280;22266;52.340;4.962;2023-09-19T05:40:54;100718.00;;;15.67;73.17
36222;BME280;22266;52.340;4.962;2023-09-19T05:43:21;100716.56;;;15.64;73.03
36222;BME280;22266;52.340;4.962;2023-09-19T05:45:48;100723.50;;;15.60;73.39
36222;BME280;22266;52.340;4.962;2023-09-19T05:48:15;100721.00;;;15.58;73.39
36222;BME280;22266;52.340;4.962;2023-09-19T05:50:43;100724.88;;;15.51;73.02
36222;BME280;22266;52.340;4.962;2023-09-19T05:53:09;100720.25;;;15.51;73.55
36222;BME280;22266;52.340;4.962;2023-09-19T05:55:39;100718.63;;;15.50;73.33
36222;BME280;22266;52.340;4.962;2023-09-19T05:58:06;100728.50;;;15.45;73.37
36222;BME280;22266;52.340;4.962;2023-09-19T06:00:33;100741.47;;;15.43;73.71
36222;BME280;22266;52.340;4.962;2023-09-19T06:03:02;100730.03;;;15.41;73.79
36222;BME280;22266;52.340;4.962;2023-09-19T06:05:29;100732.44;;;15.30;74.21
36222;BME280;22266;52.340;4.962;2023-09-19T06:07:58;100741.88;;;15.28;74.25
36222;BME280;22266;52.340;4.962;2023-09-19T06:10:27;100728.91;;;15.30;74.61
36222;BME280;22266;52.340;4.962;2023-09-19T06:12:54;100740.38;;;15.32;74.79
36222;BME280;22266;52.340;4.962;2023-09-19T06:15:24;100732.06;;;15.27;74.95
36222;BME280;22266;52.340;4.962;2023-09-19T06:17:53;100715.56;;;15.28;74.83
36222;BME280;22266;52.340;4.962;2023-09-19T06:20:27;100718.06;;;15.30;75.10
36222;BME280;22266;52.340;4.962;2023-09-19T06:22:54;100728.22;;;15.34;74.82
36222;BME280;22266;52.340;4.962;2023-09-19T06:25:21;100729.66;;;15.37;74.98
36222;BME280;22266;52.340;4.962;2023-09-19T06:27:50;100721.44;;;15.44;74.79
36222;BME280;22266;52.340;4.962;2023-09-19T06:30:22;100723.91;;;15.45;74.54
36222;BME280;22266;52.340;4.962;2023-09-19T06:32:58;100733.47;;;15.48;75.54
36222;BME280;22266;52.340;4.962;2023-09-19T06:35:26;100727.53;;;15.39;74.87
36222;BME280;22266;52.340;4.962;2023-09-19T06:37:55;100727.19;;;15.36;75.26
36222;BME280;22266;52.340;4.962;2023-09-19T06:40:25;100737.66;;;15.32;75.11
36222;BME280;22266;52.340;4.962;2023-09-19T06:42:52;100729.88;;;15.36;75.19
36222;BME280;22266;52.340;4.962;2023-09-19T06:45:22;100741.31;;;15.38;75.06
36222;BME280;22266;52.340;4.962;2023-09-19T06:47:50;100740.75;;;15.36;75.37
36222;BME280;22266;52.340;4.962;2023-09-19T06:50:20;100736.34;;;15.34;75.60
36222;BME280;22266;52.340;4.962;2023-09-19T06:52:52;100740.13;;;15.33;75.46
36222;BME280;22266;52.340;4.962;2023-09-19T06:55:22;100739.69;;;15.37;75.55
36222;BME280;22266;52.340;4.962;2023-09-19T06:57:51;100758.34;;;15.45;75.62
36222;BME280;22266;52.340;4.962;2023-09-19T07:00:21;100739.81;;;15.42;75.53
36222;BME280;22266;52.340;4.962;2023-09-19T07:02:58;100749.75;;;15.48;75.67
36222;BME280;22266;52.340;4.962;2023-09-19T07:05:31;100753.75;;;15.45;75.33
36222;BME280;22266;52.340;4.962;2023-09-19T07:07:59;100753.50;;;15.47;75.90
36222;BME280;22266;52.340;4.962;2023-09-19T07:10:26;100759.31;;;15.50;75.65
36222;BME280;22266;52.340;4.962;2023-09-19T07:12:57;100769.09;;;15.51;75.82
36222;BME280;22266;52.340;4.962;2023-09-19T07:15:28;100769.94;;;15.52;76.50
36222;BME280;22266;52.340;4.962;2023-09-19T07:17:55;100754.63;;;15.57;76.22
36222;BME280;22266;52.340;4.962;2023-09-19T07:20:24;100760.63;;;15.59;76.15
36222;BME280;22266;52.340;4.962;2023-09-19T07:22:55;100756.06;;;15.60;76.07
36222;BME280;22266;52.340;4.962;2023-09-19T07:25:21;100759.59;;;15.61;75.68
36222;BME280;22266;52.340;4.962;2023-09-19T07:27:48;100756.16;;;15.53;75.82
36222;BME280;22266;52.340;4.962;2023-09-19T07:30:15;100760.50;;;15.54;76.38
36222;BME280;22266;52.340;4.962;2023-09-19T07:32:43;100771.16;;;15.56;75.73
36222;BME280;22266;52.340;4.962;2023-09-19T07:35:09;100770.78;;;15.52;75.85
36222;BME280;22266;52.340;4.962;2023-09-19T07:37:36;100774.06;;;15.54;75.54
36222;BME280;22266;52.340;4.962;2023-09-19T07:40:03;100770.47;;;15.61;75.64
36222;BME280;22266;52.340;4.962;2023-09-19T07:42:33;100774.97;;;15.67;75.31
36222;BME280;22266;52.340;4.962;2023-09-19T07:45:01;100771.81;;;15.70;75.66
36222;BME280;22266;52.340;4.962;2023-09-19T07:47:28;100771.13;;;15.74;75.28
36222;BME280;22266;52.340;4.962;2023-09-19T07:49:56;100772.19;;;15.73;75.05
36222;BME280;22266;52.340;4.962;2023-09-19T07:52:23;100773.75;;;15.81;75.46
36222;BME280;22266;52.340;4.962;2023-09-19T07:54:50;100764.53;;;15.82;75.46
36222;BME280;22266;52.340;4.962;2023-09-19T07:57:16;100766.94;;;15.90;75.68
36222;BME280;22266;52.340;4.962;2023-09-19T07:59:43;100776.03;;;15.96;76.14
36222;BME280;22266;52.340;4.962;2023-09-19T08:02:09;100771.66;;;15.95;75.82
36222;BME280;22266;52.340;4.962;2023-09-19T08:04:43;100776.34;;;15.88;76.13
36222;BME280;22266;52.340;4.962;2023-09-19T08:07:09;100770.59;;;15.84;76.29
36222;BME280;22266;52.340;4.962;2023-09-19T08:09:37;100766.47;;;15.93;75.78
36222;BME280;22266;52.340;4.962;2023-09-19T08:12:06;100770.16;;;15.99;75.67
36222;BME280;22266;52.340;4.962;2023-09-19T08:14:34;100771.34;;;16.03;75.49
36222;BME280;22266;52.340;4.962;2023-09-19T08:17:00;100746.69;;;16.04;75.11
36222;BME280;22266;52.340;4.962;2023-09-19T08:19:27;100746.81;;;16.10;75.26
36222;BME280;22266;52.340;4.962;2023-09-19T08:21:58;100748.81;;;16.14;75.15
36222;BME280;22266;52.340;4.962;2023-09-19T08:24:29;100751.53;;;16.14;75.51
36222;BME280;22266;52.340;4.962;2023-09-19T08:26:57;100754.94;;;16.10;75.45
36222;BME280;22266;52.340;4.962;2023-09-19T08:29:25;100749.72;;;16.08;75.37
36222;BME280;22266;52.340;4.962;2023-09-19T08:31:55;100754.25;;;16.14;75.48
36222;BME280;22266;52.340;4.962;2023-09-19T08:34:23;100745.31;;;16.25;75.50
36222;BME280;22266;52.340;4.962;2023-09-19T08:36:51;100738.56;;;16.28;75.49
36222;BME280;22266;52.340;4.962;2023-09-19T08:39:19;100752.28;;;16.33;75.38
36222;BME280;22266;52.340;4.962;2023-09-19T08:41:45;100748.50;;;16.34;75.19
36222;BME280;22266;52.340;4.962;2023-09-19T08:44:12;100759.13;;;16.36;75.40
36222;BME280;22266;52.340;4.962;2023-09-19T08:46:41;100750.16;;;16.35;75.20
36222;BME280;22266;52.340;4.962;2023-09-19T08:49:17;100743.78;;;16.41;75.07
36222;BME280;22266;52.340;4.962;2023-09-19T08:51:54;100745.91;;;16.39;74.43
36222;BME280;22266;52.340;4.962;2023-09-19T08:54:32;100744.47;;;16.48;74.04
36222;BME280;22266;52.340;4.962;2023-09-19T08:57:05;100737.19;;;16.49;74.24
36222;BME280;22266;52.340;4.962;2023-09-19T08:59:35;100739.53;;;16.45;73.91
36222;BME280;22266;52.340;4.962;2023-09-19T09:02:12;100758.41;;;16.40;73.43
36222;BME280;22266;52.340;4.962;2023-09-19T09:04:44;100756.03;;;16.32;73.73
36222;BME280;22266;52.340;4.962;2023-09-19T09:07:12;100751.91;;;16.29;73.76
36222;BME280;22266;52.340;4.962;2023-09-19T09:09:39;100750.50;;;16.27;73.23
36222;BME280;22266;52.340;4.962;2023-09-19T09:12:11;100757.00;;;16.26;73.38
36222;BME280;22266;52.340;4.962;2023-09-19T09:14:40;100764.06;;;16.27;73.43
36222;BME280;22266;52.340;4.962;2023-09-19T09:17:10;100753.81;;;16.29;73.05
36222;BME280;22266;52.340;4.962;2023-09-19T09:19:37;100745.88;;;16.27;73.19
36222;BME280;22266;52.340;4.962;2023-09-19T09:22:11;100759.81;;;16.31;73.05
36222;BME280;22266;52.340;4.962;2023-09-19T09:24:51;100749.41;;;16.28;73.14
36222;BME280;22266;52.340;4.962;2023-09-19T09:27:20;100752.97;;;16.28;73.16
36222;BME280;22266;52.340;4.962;2023-09-19T09:29:52;100754.88;;;16.40;73.04
36222;BME280;22266;52.340;4.962;2023-09-19T09:32:28;100747.44;;;16.47;72.63
36222;BME280;22266;52.340;4.962;2023-09-19T09:34:57;100743.28;;;16.32;72.28
36222;BME280;22266;52.340;4.962;2023-09-19T09:37:28;100754.03;;;16.27;72.74
36222;BME280;22266;52.340;4.962;2023-09-19T09:39:59;100752.66;;;16.37;73.39
36222;BME280;22266;52.340;4.962;2023-09-19T09:42:45;100744.72;;;16.35;73.71
36222;BME280;22266;52.340;4.962;2023-09-19T09:45:22;100733.75;;;16.42;73.51
36222;BME280;22266;52.340;4.962;2023-09-19T09:48:01;100742.13;;;16.52;73.88
36222;BME280;22266;52.340;4.962;2023-09-19T09:50:48;100731.03;;;16.53;73.68
36222;BME280;22266;52.340;4.962;2023-09-19T09:56:07;100746.25;;;16.54;73.52
36222;BME280;22266;52.340;4.962;2023-09-19T09:58:34;100737.16;;;16.61;73.30
36222;BME280;22266;52.340;4.962;2023-09-19T10:01:02;100733.75;;;16.65;73.47
36222;BME280;22266;52.340;4.962;2023-09-19T10:03:39;100727.75;;;16.75;73.36
36222;BME280;22266;52.340;4.962;2023-09-19T10:06:16;100724.66;;;16.83;73.28
36222;BME280;22266;52.340;4.962;2023-09-19T10:09:07;100724.31;;;16.79;73.29
36222;BME280;22266;52.340;4.962;2023-09-19T10:11:41;100712.50;;;16.86;73.34
36222;BME280;22266;52.340;4.962;2023-09-19T10:14:10;100710.13;;;16.77;72.79
36222;BME280;22266;52.340;4.962;2023-09-19T10:16:46;100703.38;;;16.80;73.24
36222;BME280;22266;52.340;4.962;2023-09-19T10:19:36;100700.63;;;16.92;72.94
36222;BME280;22266;52.340;4.962;2023-09-19T10:22:04;100694.28;;;16.86;72.62
36222;BME280;22266;52.340;4.962;2023-09-19T10:24:33;100681.94;;;16.95;72.96
36222;BME280;22266;52.340;4.962;2023-09-19T10:27:06;100688.91;;;17.03;72.07
36222;BME280;22266;52.340;4.962;2023-09-19T10:29:36;100695.63;;;17.12;71.74
36222;BME280;22266;52.340;4.962;2023-09-19T10:32:06;100683.72;;;17.01;71.97
36222;BME280;22266;52.340;4.962;2023-09-19T10:34:36;100683.75;;;16.90;72.28
36222;BME280;22266;52.340;4.962;2023-09-19T10:37:03;100681.97;;;16.84;72.57
36222;BME280;22266;52.340;4.962;2023-09-19T10:39:32;100680.06;;;16.96;72.37
36222;BME280;22266;52.340;4.962;2023-09-19T10:42:02;100677.94;;;16.98;72.38
36222;BME280;22266;52.340;4.962;2023-09-19T10:44:32;100675.81;;;16.88;72.65
36222;BME280;22266;52.340;4.962;2023-09-19T10:46:59;100672.88;;;16.90;73.07
36222;BME280;22266;52.340;4.962;2023-09-19T10:49:26;100672.97;;;16.95;72.82
36222;BME280;22266;52.340;4.962;2023-09-19T10:51:55;100676.25;;;16.97;72.65
36222;BME280;22266;52.340;4.962;2023-09-19T10:54:28;100676.50;;;17.07;72.14
36222;BME280;22266;52.340;4.962;2023-09-19T10:56:56;100667.53;;;16.95;72.03
36222;BME280;22266;52.340;4.962;2023-09-19T10:59:25;100676.25;;;16.97;71.93
36222;BME280;22266;52.340;4.962;2023-09-19T11:01:55;100664.69;;;17.01;71.59
36222;BME280;22266;52.340;4.962;2023-09-19T11:04:30;100660.75;;;17.09;71.73
36222;BME280;22266;52.340;4.962;2023-09-19T11:15:02;100668.22;;;17.02;72.01
36222;BME280;22266;52.340;4.962;2023-09-19T11:17:38;100662.53;;;17.03;71.99
36222;BME280;22266;52.340;4.962;2023-09-19T11:30:40;100637.63;;;17.23;71.59
36222;BME280;22266;52.340;4.962;2023-09-19T11:46:34;100660.09;;;17.30;71.22
36222;BME280;22266;52.340;4.962;2023-09-19T11:49:08;100656.78;;;17.28;71.12
36222;BME280;22266;52.340;4.962;2023-09-19T11:51:41;100665.19;;;17.27;70.91
36222;BME280;22266;52.340;4.962;2023-09-19T11:54:11;100672.19;;;17.23;71.10
36222;BME280;22266;52.340;4.962;2023-09-19T11:56:45;100665.97;;;17.11;71.54
36222;BME280;22266;52.340;4.962;2023-09-19T11:59:22;100653.91;;;17.07;72.18
36222;BME280;22266;52.340;4.962;2023-09-19T12:01:53;100649.72;;;17.16;72.31
36222;BME280;22266;52.340;4.962;2023-09-19T12:04:40;100646.47;;;17.02;72.37
36222;BME280;22266;52.340;4.962;2023-09-19T12:07:11;100648.56;;;17.12;72.57
36222;BME280;22266;52.340;4.962;2023-09-19T12:09:47;100666.06;;;17.16;72.31
36222;BME280;22266;52.340;4.962;2023-09-19T12:12:25;100664.03;;;17.23;72.29
36222;BME280;22266;52.340;4.962;2023-09-19T12:14:54;100643.06;;;17.23;72.89
36222;BME280;22266;52.340;4.962;2023-09-19T12:17:23;100666.06;;;17.16;73.32
36222;BME280;22266;52.340;4.962;2023-09-19T12:19:56;100653.31;;;17.04;73.86
36222;BME280;22266;52.340;4.962;2023-09-19T12:22:22;100666.44;;;17.08;74.51
36222;BME280;22266;52.340;4.962;2023-09-19T12:24:49;100661.59;;;17.10;75.07
36222;BME280;22266;52.340;4.962;2023-09-19T12:27:17;100665.47;;;17.14;75.82
36222;BME280;22266;52.340;4.962;2023-09-19T12:29:47;100665.88;;;17.05;76.48
36222;BME280;22266;52.340;4.962;2023-09-19T12:32:17;100656.28;;;17.03;77.20
36222;BME280;22266;52.340;4.962;2023-09-19T12:34:51;100655.22;;;17.04;77.29
36222;BME280;22266;52.340;4.962;2023-09-19T12:37:19;100651.41;;;17.05;77.77
36222;BME280;22266;52.340;4.962;2023-09-19T12:39:51;100650.13;;;17.08;78.16
36222;BME280;22266;52.340;4.962;2023-09-19T12:42:26;100636.78;;;17.06;77.46
36222;BME280;22266;52.340;4.962;2023-09-19T12:44:59;100637.13;;;17.10;77.46
36222;BME280;22266;52.340;4.962;2023-09-19T12:47:28;100639.09;;;17.14;76.96
36222;BME280;22266;52.340;4.962;2023-09-19T12:52:36;100647.44;;;17.24;75.75
36222;BME280;22266;52.340;4.962;2023-09-19T12:55:03;100630.91;;;17.26;75.36
36222;BME280;22266;52.340;4.962;2023-09-19T12:57:31;100634.03;;;17.35;74.91
36222;BME280;22266;52.340;4.962;2023-09-19T13:00:04;100638.50;;;17.41;74.75
36222;BME280;22266;52.340;4.962;2023-09-19T13:02:37;100632.09;;;17.47;74.08
36222;BME280;22266;52.340;4.962;2023-09-19T13:05:04;100627.28;;;17.54;73.67
36222;BME280;22266;52.340;4.962;2023-09-19T13:07:40;100624.44;;;17.61;73.62
36222;BME280;22266;52.340;4.962;2023-09-19T13:10:10;100625.66;;;17.70;73.29
36222;BME280;22266;52.340;4.962;2023-09-19T13:12:38;100631.16;;;17.58;73.61
36222;BME280;22266;52.340;4.962;2023-09-19T13:15:11;100630.47;;;17.63;73.05
36222;BME280;22266;52.340;4.962;2023-09-19T13:17:44;100627.41;;;17.59;73.08
36222;BME280;22266;52.340;4.962;2023-09-19T13:20:25;100627.88;;;17.56;73.05
36222;BME280;22266;52.340;4.962;2023-09-19T13:22:55;100626.13;;;17.50;72.89
36222;BME280;22266;52.340;4.962;2023-09-19T13:25:27;100631.56;;;17.50;72.74
36222;BME280;22266;52.340;4.962;2023-09-19T13:27:57;100639.59;;;17.57;72.64
36222;BME280;22266;52.340;4.962;2023-09-19T13:30:25;100638.63;;;17.63;72.62
36222;BME280;22266;52.340;4.962;2023-09-19T13:33:03;100653.41;;;17.67;72.75
36222;BME280;22266;52.340;4.962;2023-09-19T13:35:31;100648.66;;;17.62;72.51
36222;BME280;22266;52.340;4.962;2023-09-19T13:37:57;100650.81;;;17.60;72.65
36222;BME280;22266;52.340;4.962;2023-09-19T13:40:24;100636.38;;;17.60;72.79
36222;BME280;22266;52.340;4.962;2023-09-19T13:42:56;100669.44;;;17.51;73.14
36222;BME280;22266;52.340;4.962;2023-09-19T13:45:23;100652.38;;;17.56;73.45
36222;BME280;22266;52.340;4.962;2023-09-19T13:47:51;100653.34;;;17.50;74.19
36222;BME280;22266;52.340;4.962;2023-09-19T13:50:17;100639.50;;;17.51;74.59
36222;BME280;22266;52.340;4.962;2023-09-19T13:52:51;100640.34;;;17.52;74.44